Terminal Aerodrome Forecast
Issued by NWS

Current Version | Previous Version | Text Only | Print | Product List | Glossary On
Versions: 1 2 3 4 5 6 7 8 9 10 11 12 13 14 15 16 17 18 19
000
FTUS42 KTBW 162332
TAFLAL
TAF
KLAL 162332Z 1700/1724 VRB03KT P6SM SCT050 BKN250
     FM170400 VRB03KT P6SM VCSH SCT040 SCT150 BKN250
     FM171000 03005KT P6SM SCT020 BKN150
     FM171400 04008KT P6SM SCT015 OVC130
     FM171700 04010KT P6SM VCSH SCT020 BKN040 OVC130
      AMD NOT SKED 1702/1711=

USA.gov is the U.S. government's official web portal to all federal, state and local government web resources and services.